CheckWX is a tool to help pilots better visualize weather data.  It is not intended as a substitute for an official pre-flight weather briefing.

05:02:49 UTC

KMBL TAF
Manistee Co-Blacker Airport
Manistee, Michigan, USA
KMBL 232336Z 2400/2424 10005KT 2SM -SN BR SCT004 BKN009 OVC035 TEMPO 2400/2401 1SM -SN BR BKN004 BKN009 OVC035 FM240600 VRB03KT P6SM VCSH OVC025 FM241000 VRB04KT 6SM -SN OVC019 FM241500 09010G18KT 2SM -SNRA OVC013 FM241800 08012G21KT 6SM -SNRA OVC015

Jan-24@
00:00 UTC

Jan-24 @ 00:00 UTC

Jan-24@
06:00 UTC

Jan-24 @ 06:00 UTC

KMBL 232336Z 2400/2424 10005KT 2SM -SN BR SCT004 BKN009 OVC035
Wind
  • 100° at 5 KTS
Conditions
Light Snow, Mist
Cloud Levels
  • Scattered at 400' AGL
  • Broken at 900' AGL
  • Overcast at 3,500' AGL

Jan-24@
00:00 UTC

Jan-24 @ 00:00 UTC

Jan-24@
01:00 UTC

Jan-24 @ 01:00 UTC

TEMPO 2400/2401 1SM -SN BR BKN004 BKN009 OVC035

Expired

Conditions
Light Snow, Mist
Cloud Levels
  • Broken at 400' AGL
  • Broken at 900' AGL
  • Overcast at 3,500' AGL

Jan-24@
06:00 UTC

Jan-24 @ 06:00 UTC

Jan-24@
10:00 UTC

Jan-24 @ 10:00 UTC

FM240600 VRB03KT P6SM VCSH OVC025

From

From Standard forecast or significant change

Wind
  • Variable at 3 KTS
Cloud Levels
  • Overcast at 2,500' AGL

Jan-24@
10:00 UTC

Jan-24 @ 10:00 UTC

Jan-24@
15:00 UTC

Jan-24 @ 15:00 UTC

FM241000 VRB04KT 6SM -SN OVC019

From

From Standard forecast or significant change

Wind
  • Variable at 4 KTS
Conditions
Light Snow
Cloud Levels
  • Overcast at 1,900' AGL

Jan-24@
15:00 UTC

Jan-24 @ 15:00 UTC

Jan-24@
18:00 UTC

Jan-24 @ 18:00 UTC

FM241500 09010G18KT 2SM -SNRA OVC013

From

From Standard forecast or significant change

Wind
  • 090° at 10 KTS
  • {Gusting to 18 KTS
Conditions
Light Snow, Light Rain
Cloud Levels
  • Overcast at 1,300' AGL

Jan-24@
18:00 UTC

Jan-24 @ 18:00 UTC

Jan-25@
00:00 UTC

Jan-25 @ 00:00 UTC

FM241800 08012G21KT 6SM -SNRA OVC015

From

From Standard forecast or significant change

Wind
  • 080° at 12 KTS
  • {Gusting to 21 KTS
Conditions
Light Snow, Light Rain
Cloud Levels
  • Overcast at 1,500' AGL